Time;durP1;ratioP1;P1;durP2;ratioP2;P2;SDS_P1;SDS_P2;PMS_P1;PMS_P2;Temp;Humidity;BMP_temperature;BMP_pressure;BME280_temperature;BME280_humidity;BME280_pressure;Samples;Min_cycle;Max_cycle;Signal;HPM_P1;HPM_P2
2023/07/12 00:00:32;;;;;;;3.87;2.80;;;23.50;1.00;;;;;;5059045;28;21155;-83
2023/07/12 00:02:59;;;;;;;3.17;1.77;;;23.50;99.90;;;;;;5058531;28;20864;-82
2023/07/12 00:05:28;;;;;;;5.13;1.77;;;23.40;99.90;;;;;;5060575;28;20458;-84
2023/07/12 00:07:56;;;;;;;4.30;1.97;;;23.30;99.90;;;;;;5085245;28;20453;-84
2023/07/12 00:10:25;;;;;;;2.00;1.40;;;23.10;99.90;;;;;;5098733;28;20454;-83
2023/07/12 00:12:53;;;;;;;4.40;1.77;;;23.00;1.00;;;;;;5077687;28;20478;-84
2023/07/12 00:15:25;;;;;;;3.70;2.17;;;23.00;1.00;;;;;;5076469;28;20538;-83
2023/07/12 00:17:53;;;;;;;4.70;1.87;;;22.90;99.90;;;;;;5071610;28;20452;-81
2023/07/12 00:20:23;;;;;;;3.57;2.50;;;22.90;99.90;;;;;;5057536;28;20452;-82
2023/07/12 00:22:51;;;;;;;2.37;1.53;;;22.90;1.00;;;;;;5059453;28;20472;-83
2023/07/12 00:25:19;;;;;;;3.90;1.97;;;22.90;99.90;;;;;;5064055;28;20477;-83
2023/07/12 00:27:46;;;;;;;6.30;1.97;;;22.90;99.90;;;;;;5077175;28;20455;-82
2023/07/12 00:30:18;;;;;;;3.90;2.03;;;22.90;99.90;;;;;;5078123;28;20451;-84
2023/07/12 00:32:48;;;;;;;2.63;1.73;;;22.90;99.90;;;;;;5078328;28;20462;-82
2023/07/12 00:35:17;;;;;;;4.93;2.30;;;22.80;99.90;;;;;;5081702;28;20457;-81
2023/07/12 00:37:44;;;;;;;6.33;2.10;;;22.60;99.90;;;;;;5084781;28;20545;-83
2023/07/12 00:40:39;;;;;;;3.03;1.80;;;22.60;99.90;;;;;;5073576;28;20456;-84
2023/07/12 00:43:17;;;;;;;3.90;2.17;;;22.60;99.90;;;;;;5056477;28;20474;-83
2023/07/12 00:45:46;;;;;;;3.00;1.60;;;22.50;1.00;;;;;;5077559;28;20426;-84
2023/07/12 00:48:15;;;;;;;4.20;1.87;;;22.30;99.90;;;;;;5077236;28;20451;-83
2023/07/12 00:50:42;;;;;;;2.23;1.60;;;22.30;1.00;;;;;;5078121;28;20840;-83
2023/07/12 00:53:17;;;;;;;2.90;2.10;;;22.30;1.00;;;;;;5078229;28;20475;-83
2023/07/12 00:56:12;;;;;;;2.70;1.40;;;22.30;99.90;;;;;;5061687;28;20479;-84
2023/07/12 00:58:43;;;;;;;3.50;1.53;;;22.40;99.90;;;;;;5042619;28;20458;-82
2023/07/12 01:01:12;;;;;;;5.53;2.00;;;22.40;99.90;;;;;;5060950;28;20444;-82
2023/07/12 01:03:43;;;;;;;2.40;1.90;;;22.40;75.00;;;;;;5059397;28;20468;-84
2023/07/12 01:06:12;;;;;;;4.67;1.83;;;22.40;91.90;;;;;;5057353;28;20471;-83
2023/07/12 01:08:41;;;;;;;4.40;1.40;;;22.30;1.00;;;;;;5057519;28;21061;-83
2023/07/12 01:11:10;;;;;;;4.07;1.40;;;22.30;99.90;;;;;;5059804;28;20447;-83
2023/07/12 01:13:39;;;;;;;2.83;1.40;;;22.30;99.90;;;;;;5075983;28;20508;-84
2023/07/12 01:16:06;;;;;;;2.83;1.57;;;22.20;99.90;;;;;;5077877;28;20558;-83
2023/07/12 01:18:33;;;;;;;3.27;1.57;;;22.30;99.90;;;;;;5059462;28;20542;-83
2023/07/12 01:21:13;;;;;;;3.50;1.43;;;22.20;7.60;;;;;;5062801;28;20538;-82
2023/07/12 01:23:41;;;;;;;1.90;1.10;;;22.20;1.00;;;;;;5062277;28;20494;-83
2023/07/12 01:26:19;;;;;;;2.70;1.30;;;22.20;1.00;;;;;;5061249;28;20463;-84
2023/07/12 01:28:48;;;;;;;1.90;1.00;;;22.20;1.00;;;;;;5078690;28;20457;-84
2023/07/12 01:31:15;;;;;;;3.10;1.30;;;22.20;1.00;;;;;;5079377;28;20466;-83
2023/07/12 01:33:42;;;;;;;1.97;1.13;;;22.20;1.00;;;;;;5079668;28;20558;-84
2023/07/12 01:36:10;;;;;;;2.40;1.30;;;22.20;1.00;;;;;;5077405;28;21066;-83
2023/07/12 01:38:37;;;;;;;2.53;1.33;;;22.20;1.00;;;;;;5078674;28;20457;-83
2023/07/12 01:41:04;;;;;;;2.53;1.40;;;22.20;1.00;;;;;;5073633;28;20830;-84
2023/07/12 01:43:32;;;;;;;2.80;1.57;;;22.20;30.00;;;;;;5058724;28;20482;-82
2023/07/12 01:45:58;;;;;;;2.63;1.33;;;22.10;1.00;;;;;;5056455;28;20448;-84
2023/07/12 01:48:25;;;;;;;2.30;1.20;;;22.10;1.00;;;;;;5058368;28;20462;-83
2023/07/12 01:50:52;;;;;;;2.87;1.50;;;22.00;24.40;;;;;;5057369;28;20454;-84
2023/07/12 01:53:20;;;;;;;2.57;1.33;;;22.00;75.60;;;;;;5057256;28;20474;-84
2023/07/12 01:55:47;;;;;;;2.27;1.50;;;22.00;1.00;;;;;;5057085;28;20480;-82
2023/07/12 01:58:14;;;;;;;2.53;1.37;;;22.00;1.00;;;;;;5057730;28;20443;-83
2023/07/12 02:00:41;;;;;;;3.40;1.37;;;22.00;1.00;;;;;;5058068;28;20455;-84
2023/07/12 02:03:08;;;;;;;2.60;1.40;;;22.10;1.00;;;;;;5058585;28;20923;-82
2023/07/12 02:05:34;;;;;;;2.50;1.50;;;22.10;1.00;;;;;;5074868;28;20455;-82
2023/07/12 02:08:01;;;;;;;4.07;1.60;;;22.10;1.00;;;;;;5078373;28;20534;-84
2023/07/12 02:10:29;;;;;;;2.37;1.20;;;22.10;1.00;;;;;;5077694;28;20465;-83
2023/07/12 02:12:56;;;;;;;5.00;1.40;;;22.10;20.40;;;;;;5079736;28;20475;-82
2023/07/12 02:15:23;;;;;;;3.40;2.13;;;22.00;50.10;;;;;;5079312;28;20473;-84
2023/07/12 02:17:50;;;;;;;3.60;1.73;;;22.00;1.00;;;;;;5086368;28;20489;-82
2023/07/12 02:20:17;;;;;;;3.60;1.80;;;22.00;1.00;;;;;;5092012;28;20455;-82
2023/07/12 02:22:45;;;;;;;3.90;1.80;;;22.00;1.00;;;;;;5085609;28;20973;-84
2023/07/12 02:25:13;;;;;;;3.10;1.90;;;22.00;99.90;;;;;;5080584;28;20478;-81
2023/07/12 02:27:44;;;;;;;3.40;1.80;;;21.70;1.00;;;;;;5057491;28;20539;-83
2023/07/12 02:30:13;;;;;;;3.60;1.97;;;21.80;99.90;;;;;;5057946;28;20873;-83
2023/07/12 02:32:40;;;;;;;5.90;1.93;;;21.70;99.90;;;;;;5060171;28;20538;-84
2023/07/12 02:35:07;;;;;;;3.53;1.70;;;21.70;99.90;;;;;;5060892;28;20511;-82
2023/07/12 02:37:34;;;;;;;3.17;1.50;;;21.60;99.90;;;;;;5060180;28;20483;-84
2023/07/12 02:40:01;;;;;;;4.17;1.93;;;21.70;99.90;;;;;;5060926;28;20451;-82
2023/07/12 02:42:28;;;;;;;4.30;1.70;;;21.70;99.90;;;;;;5060067;28;20454;-86
2023/07/12 02:44:56;;;;;;;5.90;1.87;;;21.70;99.90;;;;;;5060390;28;20452;-84
2023/07/12 02:47:23;;;;;;;2.80;1.93;;;21.60;99.90;;;;;;5079150;28;20900;-84
2023/07/12 02:49:50;;;;;;;3.70;2.20;;;21.50;99.90;;;;;;5079593;28;20465;-78
2023/07/12 02:52:17;;;;;;;3.73;1.63;;;21.60;99.90;;;;;;5079577;28;20516;-83
2023/07/12 02:54:44;;;;;;;3.70;1.90;;;21.50;99.90;;;;;;5079431;28;20477;-82
2023/07/12 02:57:12;;;;;;;3.83;1.60;;;21.40;99.90;;;;;;5078582;28;20483;-82
2023/07/12 02:59:39;;;;;;;3.40;1.30;;;21.30;99.90;;;;;;5071819;28;20452;-81
2023/07/12 03:02:09;;;;;;;2.63;1.70;;;21.40;99.90;;;;;;5063716;28;20462;-82
2023/07/12 03:04:36;;;;;;;5.13;2.00;;;21.30;99.90;;;;;;5081730;28;20471;-82
2023/07/12 03:07:04;;;;;;;4.33;1.97;;;21.30;99.90;;;;;;5083704;28;20458;-82
2023/07/12 03:09:30;;;;;;;4.10;1.93;;;21.30;1.00;;;;;;5079283;28;20453;-82
2023/07/12 03:11:57;;;;;;;4.80;2.13;;;21.20;99.90;;;;;;5078365;28;20961;-81
2023/07/12 03:14:25;;;;;;;5.43;1.83;;;21.20;99.90;;;;;;5086965;28;20872;-84
2023/07/12 03:16:52;;;;;;;4.47;2.13;;;21.20;1.00;;;;;;5067487;28;20859;-83
2023/07/12 03:19:20;;;;;;;5.70;2.13;;;21.10;1.00;;;;;;5080174;28;20523;-82
2023/07/12 03:21:48;;;;;;;5.10;2.20;;;21.00;1.00;;;;;;5076540;28;20951;-81
2023/07/12 03:24:14;;;;;;;4.70;2.67;;;20.90;99.90;;;;;;5086325;28;20482;-83
2023/07/12 03:26:41;;;;;;;4.87;1.90;;;20.90;99.90;;;;;;5069467;28;20447;-82
2023/07/12 03:29:08;;;;;;;4.80;2.63;;;20.80;99.90;;;;;;5074912;28;20569;-81
2023/07/12 03:31:35;;;;;;;5.60;2.57;;;20.70;99.90;;;;;;5077431;28;20452;-82
2023/07/12 03:34:02;;;;;;;6.17;2.77;;;20.60;99.90;;;;;;5082741;28;20834;-82
2023/07/12 03:36:31;;;;;;;6.13;2.53;;;20.60;1.00;;;;;;5069273;28;20834;-83
2023/07/12 03:38:59;;;;;;;6.50;2.40;;;20.60;1.00;;;;;;5085489;28;20447;-83
2023/07/12 03:41:27;;;;;;;4.57;2.57;;;20.40;9.60;;;;;;5071903;28;20462;-83
2023/07/12 03:43:54;;;;;;;6.50;2.57;;;20.40;1.00;;;;;;5082855;28;20480;-83
2023/07/12 03:46:21;;;;;;;5.67;2.60;;;20.40;22.40;;;;;;5086867;28;20455;-81
2023/07/12 03:48:47;;;;;;;8.23;2.83;;;20.20;99.90;;;;;;5087952;28;20888;-84
2023/07/12 03:51:17;;;;;;;5.17;2.43;;;20.20;99.90;;;;;;5077508;28;20469;-82
2023/07/12 03:53:46;;;;;;;5.40;2.60;;;20.10;97.80;;;;;;5076340;28;20479;-82
2023/07/12 03:56:12;;;;;;;8.30;2.60;;;20.10;99.90;;;;;;5076410;28;20455;-83
2023/07/12 03:58:40;;;;;;;4.43;2.97;;;20.00;99.90;;;;;;5084682;28;20439;-84
2023/07/12 04:01:09;;;;;;;4.33;2.33;;;20.00;99.90;;;;;;5076876;28;20843;-84
2023/07/12 04:03:37;;;;;;;3.67;2.20;;;19.90;99.90;;;;;;5077049;28;20483;-85
2023/07/12 04:06:05;;;;;;;3.77;1.90;;;19.90;99.90;;;;;;5088616;28;20443;-83
2023/07/12 04:08:32;;;;;;;3.10;1.93;;;19.80;99.90;;;;;;5073351;28;20452;-84
2023/07/12 04:11:01;;;;;;;4.60;2.50;;;19.80;99.90;;;;;;5058068;28;20458;-82
2023/07/12 04:13:28;;;;;;;3.40;1.90;;;19.80;99.90;;;;;;5063492;28;20486;-83
2023/07/12 04:15:57;;;;;;;4.37;1.70;;;19.90;99.90;;;;;;5076707;28;20446;-84
2023/07/12 04:18:25;;;;;;;4.10;1.70;;;19.90;99.90;;;;;;5086671;28;20855;-83
2023/07/12 04:20:53;;;;;;;4.90;2.20;;;19.80;99.90;;;;;;5095193;28;20941;-82
2023/07/12 04:23:20;;;;;;;4.37;1.80;;;19.80;99.90;;;;;;5083522;28;20482;-83
2023/07/12 04:25:47;;;;;;;3.23;1.70;;;19.90;99.90;;;;;;5087315;28;20991;-84
2023/07/12 04:28:15;;;;;;;4.73;2.23;;;19.80;99.90;;;;;;5088188;28;20458;-83
2023/07/12 04:30:42;;;;;;;6.60;2.20;;;19.80;99.90;;;;;;5060058;28;20546;-80
2023/07/12 04:33:08;;;;;;;4.63;1.90;;;19.70;99.90;;;;;;5076379;28;20481;-80
2023/07/12 04:35:39;;;;;;;8.23;2.10;;;19.80;99.90;;;;;;5075499;28;20451;-82
2023/07/12 04:38:06;;;;;;;6.17;1.97;;;19.60;99.90;;;;;;5076475;28;20933;-83
2023/07/12 04:40:33;;;;;;;2.97;1.80;;;19.70;99.90;;;;;;5076804;28;20451;-84
2023/07/12 04:42:59;;;;;;;2.93;1.57;;;19.80;99.90;;;;;;5072805;28;20497;-81
2023/07/12 04:45:27;;;;;;;4.27;1.70;;;19.80;99.90;;;;;;5066042;28;20473;-82
2023/07/12 04:47:54;;;;;;;4.40;1.67;;;19.70;99.90;;;;;;5074142;28;20447;-81
2023/07/12 04:50:21;;;;;;;3.93;1.60;;;19.50;99.90;;;;;;5076404;28;20821;-81
2023/07/12 04:52:48;;;;;;;4.23;1.60;;;19.50;99.90;;;;;;5075484;28;20560;-83
2023/07/12 04:55:27;;;;;;;3.87;1.60;;;19.60;99.90;;;;;;5071895;28;20542;-80
2023/07/12 04:57:55;;;;;;;1.97;1.30;;;19.60;99.90;;;;;;5055953;28;20483;-81
2023/07/12 05:00:23;;;;;;;3.60;1.40;;;19.60;99.90;;;;;;5059486;28;21004;-82
2023/07/12 05:02:51;;;;;;;2.23;1.40;;;19.60;99.90;;;;;;5072669;28;20578;-83
2023/07/12 05:05:18;;;;;;;2.67;1.70;;;19.60;99.90;;;;;;5062251;28;20464;-83
2023/07/12 05:07:45;;;;;;;3.50;1.60;;;19.60;99.90;;;;;;5072348;28;20447;-82
2023/07/12 05:10:12;;;;;;;2.73;1.53;;;19.50;99.90;;;;;;5076015;28;20985;-81
2023/07/12 05:12:40;;;;;;;1.90;1.20;;;19.10;99.90;;;;;;5075532;28;20458;-81
2023/07/12 05:15:08;;;;;;;3.00;1.40;;;19.40;99.90;;;;;;5068208;22;20492;-80
2023/07/12 05:17:36;;;;;;;2.93;1.60;;;19.40;99.90;;;;;;5037586;28;20485;-81
2023/07/12 05:20:06;;;;;;;2.90;1.50;;;19.40;99.90;;;;;;5037964;28;20467;-81
2023/07/12 05:22:34;;;;;;;3.23;1.30;;;19.30;99.90;;;;;;5037777;28;20441;-80
2023/07/12 05:25:01;;;;;;;3.57;1.00;;;19.40;99.90;;;;;;5038319;28;20520;-81
2023/07/12 05:27:28;;;;;;;2.57;1.30;;;19.40;99.90;;;;;;5038492;28;20448;-80
2023/07/12 05:29:55;;;;;;;3.20;1.40;;;19.30;99.90;;;;;;5037458;28;20902;-83
2023/07/12 05:32:22;;;;;;;4.07;1.20;;;19.40;99.90;;;;;;5038160;28;21078;-82
2023/07/12 05:34:48;;;;;;;2.23;1.47;;;19.30;99.90;;;;;;5039640;28;20575;-84
2023/07/12 05:37:17;;;;;;;3.70;1.30;;;19.40;99.90;;;;;;5038058;28;20575;-81
2023/07/12 05:39:44;;;;;;;3.80;1.73;;;19.30;99.90;;;;;;5038413;28;20953;-82
2023/07/12 05:42:11;;;;;;;2.57;1.30;;;19.40;99.90;;;;;;5038175;28;20528;-82
2023/07/12 05:44:38;;;;;;;2.10;1.20;;;19.50;99.90;;;;;;5037349;28;20483;-81
2023/07/12 05:47:05;;;;;;;3.93;1.40;;;19.60;99.90;;;;;;5038282;28;20543;-83
2023/07/12 05:49:32;;;;;;;2.30;1.30;;;19.60;99.90;;;;;;5038470;28;20957;-80
2023/07/12 05:52:00;;;;;;;3.47;1.60;;;19.70;98.80;;;;;;5036834;28;20499;-85
2023/07/12 05:54:29;;;;;;;3.63;1.50;;;19.60;99.90;;;;;;5038331;28;20476;-79
2023/07/12 05:56:56;;;;;;;3.17;1.50;;;19.50;99.90;;;;;;5037345;28;20449;-82
2023/07/12 05:59:23;;;;;;;2.87;1.20;;;19.60;50.10;;;;;;5037176;28;20449;-81
2023/07/12 06:01:50;;;;;;;3.30;2.03;;;19.60;99.90;;;;;;5037196;28;20536;-82
2023/07/12 06:04:17;;;;;;;3.23;1.83;;;19.50;82.50;;;;;;5034839;28;20984;-81
2023/07/12 06:06:44;;;;;;;3.50;2.07;;;19.30;42.80;;;;;;5039289;28;20518;-81
2023/07/12 06:09:12;;;;;;;3.23;1.80;;;19.30;52.30;;;;;;5039436;28;20499;-80
2023/07/12 06:11:40;;;;;;;4.27;1.80;;;19.20;99.90;;;;;;5042484;28;20452;-79
2023/07/12 06:14:07;;;;;;;4.40;2.20;;;19.20;99.90;;;;;;5048597;28;20549;-81
2023/07/12 06:16:34;;;;;;;5.47;2.27;;;19.30;99.90;;;;;;5048480;28;20869;-79
2023/07/12 06:19:01;;;;;;;4.60;2.33;;;19.30;99.90;;;;;;5041170;28;20489;-81
2023/07/12 06:21:28;;;;;;;4.10;2.30;;;19.20;99.90;;;;;;5039561;28;20445;-80
2023/07/12 06:23:57;;;;;;;4.63;2.20;;;19.20;99.90;;;;;;5039933;28;21046;-82
2023/07/12 06:26:24;;;;;;;3.87;2.20;;;19.30;99.90;;;;;;5039321;28;20948;-80
2023/07/12 06:28:53;;;;;;;3.63;2.20;;;19.20;99.90;;;;;;5040897;28;20444;-83
2023/07/12 06:31:19;;;;;;;3.17;2.00;;;19.10;99.90;;;;;;5040611;28;20680;-80
2023/07/12 06:33:46;;;;;;;9.23;2.63;;;19.20;99.90;;;;;;5039012;28;20475;-81
2023/07/12 06:36:13;;;;;;;4.03;2.30;;;19.20;99.90;;;;;;5038652;28;20469;-82
2023/07/12 06:38:40;;;;;;;8.40;2.80;;;19.20;99.90;;;;;;5038877;28;20839;-78
2023/07/12 06:41:07;;;;;;;4.10;3.30;;;19.20;99.90;;;;;;5038975;28;20475;-79
2023/07/12 06:43:33;;;;;;;3.97;2.13;;;19.30;99.90;;;;;;5038321;28;20477;-82
2023/07/12 06:46:02;;;;;;;3.80;3.00;;;19.40;99.90;;;;;;5037793;28;20461;-82
2023/07/12 06:48:29;;;;;;;5.43;3.43;;;19.40;98.40;;;;;;5039485;28;20444;-80
2023/07/12 06:50:56;;;;;;;3.83;3.00;;;19.40;99.90;;;;;;5038080;28;20518;-82
2023/07/12 06:53:23;;;;;;;3.43;2.57;;;19.70;75.80;;;;;;5038913;28;20463;-80
2023/07/12 06:55:49;;;;;;;4.30;2.67;;;19.40;55.20;;;;;;5036806;28;21130;-80
2023/07/12 06:58:16;;;;;;;2.87;2.10;;;19.50;99.90;;;;;;5038462;28;20612;-80
2023/07/12 07:00:44;;;;;;;3.87;2.40;;;19.40;91.70;;;;;;5032040;28;20460;-80
2023/07/12 07:03:14;;;;;;;4.20;2.43;;;19.50;99.90;;;;;;5019254;28;20543;-80
2023/07/12 07:05:42;;;;;;;3.90;2.53;;;19.40;56.70;;;;;;5035484;28;20488;-80
2023/07/12 07:08:10;;;;;;;6.10;2.50;;;19.50;99.90;;;;;;5035437;28;20833;-80
2023/07/12 07:10:37;;;;;;;2.73;1.70;;;19.60;99.90;;;;;;5023062;28;20457;-83
2023/07/12 07:13:04;;;;;;;5.90;2.30;;;19.80;99.90;;;;;;5015428;28;20453;-79
2023/07/12 07:15:31;;;;;;;6.33;3.10;;;19.90;1.00;;;;;;5033496;28;20548;-83
2023/07/12 07:17:57;;;;;;;3.63;1.83;;;19.90;90.30;;;;;;5018601;28;20489;-79
2023/07/12 07:20:26;;;;;;;5.20;1.83;;;19.90;1.00;;;;;;5025043;28;20453;-80
2023/07/12 07:22:54;;;;;;;3.43;2.10;;;19.80;1.00;;;;;;5035855;28;20539;-80
2023/07/12 07:25:21;;;;;;;13.30;1.90;;;19.90;1.00;;;;;;5034935;28;20480;-80
2023/07/12 07:27:47;;;;;;;4.40;2.20;;;19.90;1.00;;;;;;5033766;28;20449;-80
2023/07/12 07:30:14;;;;;;;4.00;1.93;;;20.00;1.00;;;;;;5034340;28;21024;-80
2023/07/12 07:32:41;;;;;;;4.17;2.00;;;20.10;1.00;;;;;;5034808;28;20833;-79
2023/07/12 07:35:08;;;;;;;4.70;1.97;;;20.20;1.00;;;;;;5035544;28;20580;-81
2023/07/12 07:37:37;;;;;;;6.10;2.03;;;20.30;1.00;;;;;;5034447;28;20517;-80
2023/07/12 07:40:04;;;;;;;3.90;2.20;;;20.30;1.00;;;;;;5035802;28;20460;-82
2023/07/12 07:42:31;;;;;;;5.30;2.43;;;20.30;99.90;;;;;;5035514;28;20848;-82
2023/07/12 07:44:58;;;;;;;7.20;2.10;;;20.40;99.90;;;;;;5035361;28;20476;-81
2023/07/12 07:47:24;;;;;;;5.60;2.20;;;20.50;99.90;;;;;;5035228;28;20524;-82
2023/07/12 07:49:51;;;;;;;4.40;1.80;;;20.60;99.90;;;;;;5035102;28;20463;-81
2023/07/12 07:52:18;;;;;;;4.03;1.80;;;20.60;99.90;;;;;;5034831;28;20448;-81
2023/07/12 07:54:46;;;;;;;6.90;2.50;;;20.60;1.00;;;;;;5034440;28;20480;-80
2023/07/12 07:57:13;;;;;;;4.57;2.03;;;20.60;1.00;;;;;;5034872;28;20543;-81
2023/07/12 07:59:40;;;;;;;3.90;2.03;;;20.70;35.70;;;;;;5034852;28;20484;-79
2023/07/12 08:02:10;;;;;;;4.40;2.10;;;20.80;99.90;;;;;;5042244;28;20456;-83
2023/07/12 08:04:37;;;;;;;3.80;2.17;;;20.80;1.00;;;;;;5044265;28;20476;-81
2023/07/12 08:07:05;;;;;;;4.00;2.23;;;20.80;99.90;;;;;;5039219;28;20465;-79
2023/07/12 08:09:34;;;;;;;6.70;2.40;;;20.90;99.90;;;;;;5038071;28;20452;-82
2023/07/12 08:12:02;;;;;;;5.10;2.00;;;20.90;1.00;;;;;;5034182;28;20957;-82
2023/07/12 08:14:29;;;;;;;4.77;1.90;;;20.90;99.90;;;;;;5034070;28;20472;-81
2023/07/12 08:16:57;;;;;;;4.67;1.80;;;20.90;99.90;;;;;;5034015;28;20502;-81
2023/07/12 08:19:24;;;;;;;6.60;2.03;;;20.90;1.00;;;;;;5033621;28;20849;-81
2023/07/12 08:21:51;;;;;;;4.87;2.40;;;20.90;1.00;;;;;;5033010;28;20449;-79
2023/07/12 08:24:17;;;;;;;4.07;1.63;;;20.90;1.00;;;;;;5033993;28;20918;-82
2023/07/12 08:26:44;;;;;;;2.40;1.47;;;21.10;99.90;;;;;;5032751;28;20456;-81
2023/07/12 08:29:12;;;;;;;5.20;1.80;;;21.20;99.90;;;;;;5032987;28;20528;-81
2023/07/12 08:31:39;;;;;;;7.87;2.77;;;21.30;12.60;;;;;;5013933;28;20541;-79
2023/07/12 08:34:06;;;;;;;3.53;2.13;;;21.30;1.00;;;;;;5014301;28;20480;-81
2023/07/12 08:36:33;;;;;;;5.23;1.83;;;21.30;99.90;;;;;;5025155;28;20456;-80
2023/07/12 08:39:00;;;;;;;3.50;1.73;;;21.40;99.90;;;;;;5033344;28;20489;-81
2023/07/12 08:41:27;;;;;;;10.70;1.97;;;21.40;99.90;;;;;;5030472;28;20461;-80
2023/07/12 08:43:54;;;;;;;4.07;1.70;;;21.30;99.90;;;;;;5033699;28;20910;-78
2023/07/12 08:46:24;;;;;;;3.07;1.77;;;21.40;99.90;;;;;;5031686;28;20475;-81
2023/07/12 08:48:54;;;;;;;4.63;1.60;;;21.40;58.60;;;;;;5021626;28;20442;-80
2023/07/12 08:51:30;;;;;;;3.97;1.50;;;21.40;99.90;;;;;;5013159;28;20472;-82
2023/07/12 08:53:57;;;;;;;4.30;1.60;;;21.40;99.90;;;;;;5014217;28;20481;-81
2023/07/12 08:56:26;;;;;;;3.77;1.50;;;21.50;99.90;;;;;;5016005;28;20475;-80
2023/07/12 08:58:55;;;;;;;5.10;2.20;;;21.50;82.10;;;;;;5018976;28;20481;-80
2023/07/12 09:01:45;;;;;;;4.17;1.50;;;21.40;99.90;;;;;;5028614;28;20468;-82
2023/07/12 09:04:31;;;;;;;3.70;1.50;;;21.50;1.00;;;;;;5035553;28;20473;-82
2023/07/12 09:07:01;;;;;;;2.10;1.47;;;21.50;1.00;;;;;;5033926;28;20444;-82
2023/07/12 09:09:32;;;;;;;3.43;1.50;;;21.50;99.90;;;;;;5036622;28;20468;-82
2023/07/12 09:12:00;;;;;;;6.50;1.87;;;21.50;1.00;;;;;;5036239;28;20440;-81
2023/07/12 09:14:27;;;;;;;3.30;1.53;;;21.50;99.90;;;;;;5035906;28;20553;-82
2023/07/12 09:16:58;;;;;;;2.67;1.83;;;21.50;1.00;;;;;;5015818;28;20453;-83
2023/07/12 09:19:29;;;;;;;4.43;1.53;;;21.40;1.00;;;;;;5016954;28;20484;-81
2023/07/12 09:21:58;;;;;;;4.60;1.70;;;21.70;99.90;;;;;;5017520;28;20438;-82
2023/07/12 09:24:28;;;;;;;3.93;1.83;;;22.00;99.90;;;;;;5024618;28;20480;-81
2023/07/12 09:27:04;;;;;;;4.80;1.70;;;22.10;99.90;;;;;;5027105;28;20457;-80
2023/07/12 09:29:33;;;;;;;4.37;1.80;;;22.10;71.90;;;;;;5039977;28;20567;-82
2023/07/12 09:32:02;;;;;;;4.83;1.67;;;22.20;99.90;;;;;;5039781;28;21023;-82
2023/07/12 09:34:37;;;;;;;6.00;2.03;;;22.50;1.00;;;;;;5038521;28;20473;-80
2023/07/12 09:37:04;;;;;;;3.37;1.83;;;22.60;99.90;;;;;;5036661;28;20524;-81
2023/07/12 09:39:31;;;;;;;7.87;3.53;;;22.40;99.90;;;;;;5038621;28;20492;-82
2023/07/12 09:42:00;;;;;;;5.50;1.60;;;22.30;1.00;;;;;;5042902;28;20795;-80
2023/07/12 09:44:29;;;;;;;5.60;1.90;;;22.50;5.30;;;;;;5043964;28;20523;-80
2023/07/12 09:47:03;;;;;;;7.20;2.20;;;22.50;1.00;;;;;;5040616;28;20457;-82
2023/07/12 09:49:39;;;;;;;3.63;1.53;;;22.40;1.00;;;;;;5044039;28;20535;-81
2023/07/12 09:52:14;;;;;;;3.90;1.87;;;22.50;99.90;;;;;;5045675;28;20468;-82
2023/07/12 09:54:48;;;;;;;5.80;2.00;;;22.70;99.90;;;;;;5043413;28;20486;-81
2023/07/12 09:57:19;;;;;;;3.53;1.30;;;22.80;99.90;;;;;;5040925;28;20453;-82
2023/07/12 09:59:55;;;;;;;3.57;2.07;;;22.90;99.90;;;;;;5039966;28;20476;-84
2023/07/12 10:02:39;;;;;;;5.93;1.80;;;22.80;99.90;;;;;;5040560;28;20452;-83
2023/07/12 10:05:11;;;;;;;7.93;2.13;;;22.50;37.00;;;;;;5041230;28;20572;-86
2023/07/12 10:07:53;;;;;;;3.23;1.77;;;22.40;99.90;;;;;;5040952;28;20453;-81
2023/07/12 10:10:26;;;;;;;3.53;1.70;;;22.30;99.90;;;;;;5040498;28;20464;-81
2023/07/12 10:13:07;;;;;;;4.33;1.87;;;22.30;99.90;;;;;;5040915;28;20524;-82
2023/07/12 10:15:38;;;;;;;2.83;1.53;;;22.20;1.00;;;;;;5039143;28;20569;-82
2023/07/12 10:18:09;;;;;;;8.47;2.27;;;22.10;99.90;;;;;;5038687;28;20445;-82
2023/07/12 10:20:36;;;;;;;4.77;1.50;;;22.30;99.90;;;;;;5039458;28;20926;-82
2023/07/12 10:23:04;;;;;;;3.57;1.40;;;22.90;99.90;;;;;;5040212;28;20452;-81
2023/07/12 10:25:34;;;;;;;2.67;1.47;;;23.10;1.00;;;;;;5039929;28;21297;-81
2023/07/12 10:28:07;;;;;;;3.67;1.30;;;23.00;49.30;;;;;;5039291;28;20444;-83
2023/07/12 10:30:35;;;;;;;7.07;1.43;;;23.00;1.00;;;;;;5024084;28;20448;-83
2023/07/12 10:33:09;;;;;;;4.57;1.80;;;23.10;1.00;;;;;;5039727;28;20464;-82
2023/07/12 10:35:45;;;;;;;4.80;1.53;;;23.60;1.00;;;;;;5038977;28;20481;-83
2023/07/12 10:38:14;;;;;;;6.33;1.97;;;23.80;1.00;;;;;;5040014;28;20439;-82
2023/07/12 10:40:47;;;;;;;11.23;1.93;;;23.60;1.00;;;;;;5037503;28;20535;-82
2023/07/12 10:43:19;;;;;;;3.23;1.17;;;23.40;1.00;;;;;;5031413;28;20532;-82
2023/07/12 10:45:50;;;;;;;5.93;1.70;;;23.10;1.00;;;;;;5035264;28;20820;-82
2023/07/12 10:48:23;;;;;;;7.60;1.80;;;22.90;1.00;;;;;;5038012;28;20967;-82
2023/07/12 10:50:56;;;;;;;4.13;1.50;;;22.50;99.90;;;;;;5037175;28;20459;-84
2023/07/12 10:53:25;;;;;;;5.17;1.80;;;23.20;99.90;;;;;;5036166;28;20456;-80
2023/07/12 10:56:13;;;;;;;2.63;1.20;;;23.50;1.00;;;;;;5036829;28;20540;-81
2023/07/12 10:58:50;;;;;;;3.73;1.63;;;24.00;99.90;;;;;;5038194;28;20477;-82
2023/07/12 11:01:48;;;;;;;3.30;1.23;;;24.10;1.00;;;;;;5037705;28;20842;-80
2023/07/12 11:04:17;;;;;;;4.60;2.07;;;23.80;1.00;;;;;;5036164;28;20479;-81
2023/07/12 11:07:00;;;;;;;4.27;2.10;;;23.50;1.00;;;;;;5037062;28;20453;-81
2023/07/12 11:10:07;;;;;;;2.93;1.20;;;23.10;1.00;;;;;;5037594;28;20829;-80
2023/07/12 11:12:37;;;;;;;8.03;1.50;;;23.00;1.00;;;;;;5038765;28;20449;-79
2023/07/12 11:15:18;;;;;;;4.90;1.80;;;22.90;96.50;;;;;;5067799;22;20574;-80
2023/07/12 11:17:52;;;;;;;5.30;1.70;;;22.80;99.90;;;;;;5086070;28;20467;-82
2023/07/12 11:20:23;;;;;;;3.20;1.60;;;22.80;1.00;;;;;;5083843;28;21046;-81
2023/07/12 11:22:58;;;;;;;3.10;1.73;;;23.40;1.00;;;;;;5084960;28;20439;-79
2023/07/12 11:25:34;;;;;;;3.40;1.87;;;23.70;99.90;;;;;;5071257;28;20503;-78
2023/07/12 11:28:03;;;;;;;2.40;1.70;;;23.80;1.00;;;;;;5064372;28;20444;-80
2023/07/12 11:30:43;;;;;;;6.13;2.00;;;23.60;1.00;;;;;;5065464;28;20440;-80
2023/07/12 11:33:18;;;;;;;4.27;1.37;;;23.40;99.90;;;;;;5062924;28;20448;-80
2023/07/12 11:35:47;;;;;;;4.00;1.43;;;23.50;1.00;;;;;;5062616;28;20506;-80
2023/07/12 11:38:18;;;;;;;9.33;2.07;;;23.50;99.90;;;;;;5062972;28;20448;-80
2023/07/12 11:40:48;;;;;;;2.77;1.40;;;23.60;1.00;;;;;;5062618;28;20867;-77
2023/07/12 11:43:37;;;;;;;2.77;1.40;;;23.80;1.00;;;;;;5062004;28;20539;-80
2023/07/12 11:46:13;;;;;;;5.87;1.67;;;24.60;99.90;;;;;;5061131;28;20472;-80
2023/07/12 11:48:45;;;;;;;5.80;1.70;;;24.90;50.70;;;;;;5058052;28;20526;-80
2023/07/12 11:51:19;;;;;;;4.23;1.83;;;25.10;99.90;;;;;;5060514;28;20877;-79
2023/07/12 11:53:56;;;;;;;3.60;1.50;;;25.00;99.90;;;;;;5062709;28;20511;-79
2023/07/12 11:56:24;;;;;;;2.77;1.37;;;25.10;99.90;;;;;;5059850;28;20463;-79
2023/07/12 11:58:51;;;;;;;4.27;1.33;;;25.50;99.90;;;;;;5059914;28;20502;-79
2023/07/12 12:01:20;;;;;;;4.20;1.70;;;26.00;99.90;;;;;;5062260;28;20452;-82
2023/07/12 12:03:49;;;;;;;4.60;1.80;;;26.30;99.90;;;;;;5057408;28;20452;-81
2023/07/12 12:06:17;;;;;;;2.73;1.10;;;26.60;99.90;;;;;;5060782;28;20455;-80
2023/07/12 12:08:48;;;;;;;3.73;1.80;;;27.10;99.90;;;;;;5059249;28;20839;-82
2023/07/12 12:11:18;;;;;;;5.90;2.17;;;26.80;99.90;;;;;;5059713;28;20449;-80
2023/07/12 12:13:51;;;;;;;4.00;1.20;;;26.30;99.90;;;;;;5059148;28;20447;-81
2023/07/12 12:16:20;;;;;;;6.23;2.00;;;25.70;99.90;;;;;;5059600;28;20448;-81
2023/07/12 12:18:53;;;;;;;4.83;1.90;;;25.90;1.00;;;;;;5061052;28;20519;-81
2023/07/12 12:21:20;;;;;;;4.50;1.97;;;26.20;99.90;;;;;;5060848;28;20456;-82
2023/07/12 12:23:55;;;;;;;3.80;1.87;;;26.30;99.90;;;;;;5063482;28;20454;-80
2023/07/12 12:26:27;;;;;;;5.83;1.70;;;26.00;99.90;;;;;;5058466;28;20527;-81
2023/07/12 12:28:58;;;;;;;3.87;1.30;;;25.80;99.90;;;;;;5062224;28;20533;-80
2023/07/12 12:31:26;;;;;;;3.13;1.30;;;25.80;99.90;;;;;;5061729;28;20539;-82
2023/07/12 12:34:06;;;;;;;3.97;1.60;;;25.60;99.90;;;;;;5060293;28;20448;-81
2023/07/12 12:36:34;;;;;;;3.30;1.30;;;25.50;99.90;;;;;;5058948;28;20462;-80
2023/07/12 12:39:05;;;;;;;2.70;1.27;;;25.60;99.90;;;;;;5060640;28;20508;-82
2023/07/12 12:41:39;;;;;;;4.80;1.63;;;25.60;99.90;;;;;;5060080;28;20499;-80
2023/07/12 12:44:14;;;;;;;6.33;1.87;;;26.20;1.00;;;;;;5058614;28;20443;-81
2023/07/12 12:46:41;;;;;;;3.50;1.50;;;26.50;99.90;;;;;;5037959;28;20435;-82
2023/07/12 12:49:21;;;;;;;3.60;1.57;;;27.00;99.90;;;;;;5036672;28;20449;-78
2023/07/12 12:51:50;;;;;;;3.60;1.40;;;26.80;99.90;;;;;;5037518;28;20436;-80
2023/07/12 12:54:17;;;;;;;4.33;1.40;;;26.60;99.90;;;;;;5037779;28;20481;-81
2023/07/12 12:56:46;;;;;;;5.10;1.43;;;26.30;99.90;;;;;;5038325;28;20433;-81
2023/07/12 12:59:15;;;;;;;3.60;1.50;;;26.00;99.90;;;;;;5038289;28;20564;-82
2023/07/12 13:01:42;;;;;;;3.33;1.30;;;26.20;99.90;;;;;;5038410;28;20440;-82